Weather Refreshing every minute   No change Green  Reduced Blue  Increased Red  Changed Cyan
DescriptionDate Time (UTC/GMT)Temperature °CDew Point Temperature °CLiquid Freezing temperature °CMax Wind Direction °C Max Wind Speed m/sPrecipitation Total mmRain Intensity mm/hrRain On/OffRain State Relative Humidity %Surface StateSurface Temperature °CWater Layer mmWater Thickness mmWind Direction °D Wind Speed m/s
B1318 Great North Road 21/10/2020 09:00:00 13.3 11.5 0 0 1.4 0.1 0 Unavailable No Precipitation 88.8 Wet 12.7 0.03 0 200 0.7
B1318 21/10/2020 09:00:00 13.3 11.5 0 0 1 0 0 Unavailable No Precipitation 88.9 Wet 12.3 0.02 0 105 0.5
C304 Garesfield 21/10/2020 09:00:00 12.3 11.3 0 213 4.4 0.1 0 Rain detector off No Precipitation 93 Wet 11.9 0.21 0 213 2.9
A1231 Wessington Way 21/10/2020 09:00:00 13.3 12.8 0 120 1.8 1 0 Rain detector off No Precipitation 97 Wet 13.7 0 0.55 346 0.7
Burdon Lane 21/10/2020 09:00:00 13 11.4 0 0 2.8 0 0 Unavailable Unavailable 90 Wet 11.1 0 0.05 219 1.9
A690 Houghton Cut 21/10/2020 09:00:00 13.2 12.5 0 232 0.1 0.1 0 Rain detector off No Precipitation 95 Wet 12.5 0 0.05 184 0
A1018 Sunderland Road 21/10/2020 09:00:00 13.7 12.6 0 340 1.2 0.4 0 Rain detector off No Precipitation 93 Wet 13.1 0 0.27 258 0.6
Hedworth Lane 21/10/2020 09:00:00 13.1 12.9 0 206 2 0.1 0 Rain detector off No Precipitation 98 Moist 13.2 0 0.04 147 1
A185 Hebburn 21/10/2020 09:00:00 12.4 11.6 0 0 0 0 0 Unavailable Unavailable 94.7 Unavailable 12.8 0 0 0 0
A1058 Formica 21/10/2020 09:00:00 13.2 13 0 233 1.2 0 0.01 Rain detector on Light Precipitation 99 Moist 12.6 0 0.02 165 0.4
A1 Berwick-upon-Tweed 21/10/2020 09:00:00 12 10.5 0 350 3.6 0 0 Rain detector off No Precipitation 90 Moist 11.5 0 0 251 2.4
A1 Haggerston 21/10/2020 08:50:00 12.7 11.7 0 278 0.1 0 0 Rain detector off No Precipitation 93 Wet 11.8 0 0 244 0
A1 Felton 21/10/2020 08:50:00 11.4 11.4 0 56 1.2 0 0 Rain detector off No Precipitation 100 Moist 12.1 0 0 301 0.4
A1 Rosebrough 21/10/2020 09:00:00 12.3 11.7 0 257 4.2 0 0 Rain detector off No Precipitation 97 Wet 12.4 0 0 226 2.9
A1 Stannington 21/10/2020 09:00:00 13.7 11.9 0 1 0.1 0 0 Rain detector off No Precipitation 89 Dry 13.9 0 0 219 0
A697 Longframlington 21/10/2020 09:00:00 11.8 11.3 0 0 1.7 0.1 0 Rain detector off No Precipitation 97 Moist 12 0 0.01 199 1.4
A698 Norham / B6470 The Salutation 21/10/2020 09:00:00 12.2 10.5 -1.1 176 2.8 0 0 Rain detector off No Precipitation 90 Trace of Chemical 11.5 0 0 134 1.5
A189 Cramlington 21/10/2020 09:00:00 13.3 12.4 0 248 1.6 0.3 0 Rain detector off No Precipitation 94 Moist 13.3 0 0 164 0.6
A69 Mowden Hall 21/10/2020 09:00:00 13 11.6 0 349 2.1 0 0 Rain detector off No Precipitation 91 Dry 12.8 0 0 188 0.7
A696 Raechester 21/10/2020 09:00:00 11.3 10.8 0 0 1.8 0 0 Rain detector off No Precipitation 97 Wet 11 0 0.06 157 1.6
A1 Metrocentre 21/10/2020 08:50:00 13 12.5 -0.1 144 0.6 0 0 Rain detector off No Precipitation 97 Moist 13.7 0 0 85 0
A189 Redheugh Bridge 21/10/2020 09:05:00 0 0 0 176 2.7 0 0 Unavailable Unavailable 0 Unavailable 0 0 0 193 1.1
A68 Tow Law 21/10/2020 08:20:00 11.5 11.5 0 217 3.4 1.1 1.14 Rain detector on Light Precipitation 100 Wet 11.6 0 0.62 176 1.9
A689 Lanehead 21/10/2020 08:20:00 11.1 10.8 0 215 7.6 0.9 0 Rain detector off No Precipitation 98 Wet 11.3 0 0.08 184 4.8
A194(M) Blackfell 25/03/2019 14:00:00 11.6 1.1 0 138 3.2 0 0 Rain detector off No Precipitation 48 Dry 0 0 0 31 1.3
Great Stainton 21/10/2020 08:20:00 13.1 12.8 0 233 4.5 0.6 0 Rain detector off No Precipitation 98 Wet 13.4 0 0.18 178 2.5
A6072 Redworth 21/10/2020 08:20:00 12.8 12.3 0 106 3.7 0.2 0.16 Rain detector on Light Precipitation 97 Wet 12.9 0 0.08 51 1.8
A1 Coniscliffe 21/10/2020 08:10:00 13.3 12.3 0 241 3.3 0 0.1 Rain detector on Light Precipitation 93 Moist 13.6 0 0 193 1.8
A19 Low Stotfold 21/10/2020 08:20:00 13.9 13.3 0 305 2.8 3 0 Rain detector off No Precipitation 96 Wet 14.4 0 0.41 179 1.4
A66 Elton 21/10/2020 08:10:00 13.9 13.1 0 229 3.2 0 0 Rain detector off No Precipitation 95 Moist 14.2 0 0 136 1.7
A181 Running Waters 21/10/2020 08:20:00 13.3 12.9 0 203 8.1 0 0 Rain detector off No Precipitation 98 Moist 13.6 0 0 176 5.2
B6277 Forest in Teesdale 21/10/2020 08:20:00 12.1 11.2 0 263 6.4 2.1 0 Rain detector off No Precipitation 94 Wet 12.1 0 0.43 212 3.8
A66 North Bitts 20/10/2020 07:10:00 10.7 9.9 0 240 3.6 0 0 Rain detector off No Precipitation 95 Wet 11 0 0 171 1.7
B6309 Medomsley 21/10/2020 08:20:00 12.6 11.9 0 237 4.3 0 0 Rain detector off No Precipitation 95 Wet and Treated 13.1 0 0.19 200 2.8
A689 Bradbury 21/10/2020 08:20:00 13.2 12.8 0 172 4 1.8 0 Rain detector off No Precipitation 97 Wet 13.9 0 0.79 113 2.8
B1432 Hawthorn 21/10/2020 08:20:00 13.4 12.4 0 306 6.6 1 0 Rain detector off No Precipitation 94 Wet 12.8 0 0.46 264 4.7
B6302 Ushaw Moor 21/10/2020 08:20:00 12.8 12 0 148 6.1 1.3 0 Rain detector off No Precipitation 95 Wet 12.9 0 0.14 163 2.8
A689 Toronto 21/10/2020 08:20:00 12.6 12.4 0 172 6.3 1.5 0 Rain detector off No Precipitation 98 Moist 12.8 0 0.03 147 4.1
A66 Stainmore 25/03/2019 14:00:00 10.5 0.7 0 304 7.7 0 0 Unavailable Unavailable 59 Dry 0 0 0 250 5